createdAt,value
2023-05-20T00:00:11.106Z,14.00
2023-05-20T00:02:38.432Z,14.00
2023-05-20T00:05:06.205Z,14.00
2023-05-20T00:07:33.132Z,14.00
2023-05-20T00:09:59.997Z,13.90
2023-05-20T00:12:26.926Z,13.80
2023-05-20T00:14:55.886Z,13.90
2023-05-20T00:17:23.049Z,13.80
2023-05-20T00:19:49.885Z,13.80
2023-05-20T00:22:16.767Z,13.80
2023-05-20T00:24:43.571Z,13.80
2023-05-20T00:27:10.438Z,13.80
2023-05-20T00:29:37.435Z,13.80
2023-05-20T00:32:04.611Z,13.80
2023-05-20T00:34:31.602Z,13.90
2023-05-20T00:36:58.798Z,13.90
2023-05-20T00:39:25.725Z,13.90
2023-05-20T00:41:52.551Z,13.90
2023-05-20T00:44:19.386Z,13.90
2023-05-20T00:46:48.192Z,13.90
2023-05-20T00:49:16.057Z,13.90
2023-05-20T00:51:42.891Z,13.80
2023-05-20T00:54:10.780Z,13.80
2023-05-20T00:56:38.114Z,13.80
2023-05-20T00:59:05.721Z,13.70
2023-05-20T01:01:32.624Z,13.70
2023-05-20T01:04:00.234Z,13.70
2023-05-20T01:06:28.152Z,13.70
2023-05-20T01:08:55.186Z,13.80
2023-05-20T01:11:34.698Z,13.80
2023-05-20T01:14:07.069Z,13.70
2023-05-20T01:16:35.943Z,13.70
2023-05-20T01:19:08.380Z,13.70
2023-05-20T01:21:36.577Z,13.70
2023-05-20T01:24:05.793Z,13.70
2023-05-20T01:26:33.379Z,13.70
2023-05-20T01:29:04.255Z,13.70
2023-05-20T01:31:37.024Z,13.70
2023-05-20T01:34:05.589Z,13.60
2023-05-20T01:36:33.166Z,13.50
2023-05-20T01:39:02.538Z,13.60
2023-05-20T01:41:30.145Z,13.50
2023-05-20T01:43:57.504Z,13.60
2023-05-20T01:46:24.419Z,13.60
2023-05-20T01:48:51.382Z,13.60
2023-05-20T01:51:18.407Z,13.50
2023-05-20T01:53:45.289Z,13.50
2023-05-20T01:56:12.124Z,13.50
2023-05-20T01:58:38.958Z,13.50
2023-05-20T02:01:05.953Z,13.60
2023-05-20T02:03:32.829Z,13.60
2023-05-20T02:05:59.729Z,13.60
2023-05-20T02:08:26.685Z,13.60
2023-05-20T02:10:53.535Z,13.60
2023-05-20T02:13:20.466Z,13.60
2023-05-20T02:15:47.387Z,13.60
2023-05-20T02:18:14.331Z,13.50
2023-05-20T02:20:42.705Z,13.40
2023-05-20T02:23:09.562Z,13.40
2023-05-20T02:25:36.555Z,13.40
2023-05-20T02:28:05.851Z,13.40
2023-05-20T02:30:32.721Z,13.40
2023-05-20T02:32:59.925Z,13.40
2023-05-20T02:35:26.858Z,13.30
2023-05-20T02:37:53.695Z,13.30
2023-05-20T02:40:20.840Z,13.30
2023-05-20T02:42:47.832Z,13.30
2023-05-20T02:45:14.741Z,13.30
2023-05-20T02:47:41.597Z,13.20
2023-05-20T02:50:08.962Z,13.20
2023-05-20T02:52:36.206Z,13.20
2023-05-20T02:55:03.181Z,13.20
2023-05-20T02:57:30.074Z,13.20
2023-05-20T02:59:56.913Z,13.20
2023-05-20T03:02:25.057Z,13.10
2023-05-20T03:04:53.956Z,13.20
2023-05-20T03:07:21.635Z,13.10
2023-05-20T03:09:48.750Z,13.10
2023-05-20T03:12:15.771Z,13.10
2023-05-20T03:14:42.717Z,13.10
2023-05-20T03:17:10.740Z,13.10
2023-05-20T03:19:37.633Z,13.10
2023-05-20T03:22:04.820Z,13.10
2023-05-20T03:24:32.363Z,13.20
2023-05-20T03:26:59.263Z,13.10
2023-05-20T03:29:26.106Z,13.20
2023-05-20T03:31:53.060Z,13.10
2023-05-20T03:34:19.981Z,13.20
2023-05-20T03:36:46.779Z,13.20
2023-05-20T03:39:13.626Z,13.20
2023-05-20T03:41:40.458Z,13.20
2023-05-20T03:44:07.308Z,13.20
2023-05-20T03:46:34.473Z,13.30
2023-05-20T03:49:04.592Z,13.30
2023-05-20T03:51:31.496Z,13.40
2023-05-20T03:53:58.366Z,13.40
2023-05-20T03:56:26.403Z,13.40
2023-05-20T03:58:53.579Z,13.40
2023-05-20T04:01:21.337Z,13.50
2023-05-20T04:03:48.342Z,13.40
2023-05-20T04:06:15.421Z,13.40
2023-05-20T04:08:42.389Z,13.40
2023-05-20T04:11:09.222Z,13.50
2023-05-20T04:13:36.140Z,13.50
2023-05-20T04:16:05.336Z,13.50
2023-05-20T04:18:32.204Z,13.50
2023-05-20T04:21:02.072Z,13.60
2023-05-20T04:23:29.094Z,13.60
2023-05-20T04:25:56.012Z,13.70
2023-05-20T04:28:23.910Z,13.70
2023-05-20T04:31:00.279Z,13.80
2023-05-20T04:33:27.977Z,13.90
2023-05-20T04:35:58.648Z,13.90
2023-05-20T04:38:32.397Z,14.10
2023-05-20T04:41:02.501Z,14.10
2023-05-20T04:43:30.410Z,14.10
2023-05-20T04:45:57.906Z,14.10
2023-05-20T04:48:24.807Z,14.10
2023-05-20T04:50:54.810Z,14.20
2023-05-20T04:53:24.211Z,14.20
2023-05-20T04:55:56.666Z,14.10
2023-05-20T04:58:24.974Z,14.10
2023-05-20T05:00:52.688Z,14.10
2023-05-20T05:03:19.989Z,14.10
2023-05-20T05:05:46.828Z,14.10
2023-05-20T05:08:13.899Z,14.00
2023-05-20T05:10:40.998Z,14.00
2023-05-20T05:13:07.827Z,14.10
2023-05-20T05:15:34.866Z,14.10
2023-05-20T05:18:02.537Z,14.10
2023-05-20T05:20:29.454Z,14.10
2023-05-20T05:22:56.247Z,14.20
2023-05-20T05:25:23.145Z,14.20
2023-05-20T05:27:50.400Z,14.20
2023-05-20T05:30:17.658Z,14.30
2023-05-20T05:32:44.729Z,14.30
2023-05-20T05:35:11.713Z,14.30
2023-05-20T05:37:38.616Z,14.30
2023-05-20T05:40:07.988Z,14.50
2023-05-20T05:42:34.878Z,14.60
2023-05-20T05:45:01.996Z,14.50
2023-05-20T05:47:32.461Z,14.60
2023-05-20T05:50:00.070Z,14.50
2023-05-20T05:52:27.661Z,14.50
2023-05-20T05:54:55.422Z,14.50
2023-05-20T05:57:22.275Z,14.60
2023-05-20T05:59:49.184Z,14.60
2023-05-20T06:02:16.423Z,14.60
2023-05-20T06:04:43.401Z,14.60
2023-05-20T06:07:10.694Z,14.50
2023-05-20T06:09:38.904Z,14.60
2023-05-20T06:12:06.144Z,14.60
2023-05-20T06:14:33.318Z,14.60
2023-05-20T06:17:00.565Z,14.70
2023-05-20T06:19:27.553Z,14.70
2023-05-20T06:21:54.374Z,14.70
2023-05-20T06:24:22.420Z,14.70
2023-05-20T06:26:52.249Z,14.80
2023-05-20T06:29:19.159Z,14.90
2023-05-20T06:31:46.081Z,15.00
2023-05-20T06:34:13.045Z,15.10
2023-05-20T06:36:39.986Z,15.20
2023-05-20T06:39:12.170Z,15.10
2023-05-20T06:41:40.203Z,15.10
2023-05-20T06:44:07.783Z,15.10
2023-05-20T06:46:35.329Z,15.10
2023-05-20T06:49:03.062Z,15.10
2023-05-20T06:51:29.938Z,15.00
2023-05-20T06:53:56.777Z,15.00
2023-05-20T06:56:23.628Z,14.90
2023-05-20T06:58:50.500Z,15.00
2023-05-20T07:01:18.412Z,15.10
2023-05-20T07:03:45.531Z,15.00
2023-05-20T07:06:12.418Z,15.00
2023-05-20T07:08:39.499Z,15.10
2023-05-20T07:11:06.356Z,15.10
2023-05-20T07:13:33.193Z,15.20
2023-05-20T07:16:00.115Z,15.30
2023-05-20T07:18:27.156Z,15.40
2023-05-20T07:20:54.105Z,15.40
2023-05-20T07:23:20.940Z,15.60
2023-05-20T07:25:47.804Z,15.60
2023-05-20T07:28:17.687Z,15.70
2023-05-20T07:30:50.177Z,15.60
2023-05-20T07:33:17.755Z,15.70
2023-05-20T07:35:45.263Z,15.90
2023-05-20T07:38:12.779Z,15.80
2023-05-20T07:40:42.681Z,16.00
2023-05-20T07:43:09.906Z,16.20
2023-05-20T07:45:37.397Z,16.30
2023-05-20T07:48:05.665Z,16.40
2023-05-20T07:50:34.164Z,16.50
2023-05-20T07:53:01.036Z,16.50
2023-05-20T07:55:27.906Z,16.40
2023-05-20T07:57:54.802Z,16.40
2023-05-20T08:00:21.699Z,16.70
2023-05-20T08:02:48.695Z,16.90
2023-05-20T08:05:15.774Z,17.00
2023-05-20T08:07:42.577Z,17.10
2023-05-20T08:10:09.990Z,17.00
2023-05-20T08:12:36.887Z,17.10
2023-05-20T08:15:04.548Z,17.20
2023-05-20T08:17:32.279Z,17.10
2023-05-20T08:19:59.181Z,17.20
2023-05-20T08:22:26.263Z,17.30
2023-05-20T08:24:53.085Z,17.30
2023-05-20T08:27:21.097Z,17.30
2023-05-20T08:29:47.904Z,17.30
2023-05-20T08:32:14.726Z,17.40
2023-05-20T08:34:42.765Z,17.20
2023-05-20T08:37:10.506Z,17.20
2023-05-20T08:39:37.324Z,17.10
2023-05-20T08:42:06.865Z,17.10
2023-05-20T08:44:34.820Z,17.10
2023-05-20T08:47:03.890Z,17.00
2023-05-20T08:49:32.349Z,17.10
2023-05-20T08:52:03.658Z,17.20
2023-05-20T08:54:46.485Z,17.30
2023-05-20T08:57:14.101Z,17.60
2023-05-20T08:59:46.869Z,17.80
2023-05-20T09:02:14.027Z,17.80
2023-05-20T09:04:41.239Z,17.80
2023-05-20T09:07:08.485Z,17.70
2023-05-20T09:09:36.173Z,17.80
2023-05-20T09:12:04.245Z,18.00
2023-05-20T09:14:31.916Z,18.10
2023-05-20T09:16:59.397Z,18.30
2023-05-20T09:19:26.658Z,18.50
2023-05-20T09:21:58.402Z,18.70
2023-05-20T09:24:26.734Z,18.80
2023-05-20T09:26:54.025Z,18.80
2023-05-20T09:29:21.752Z,18.80
2023-05-20T09:31:50.172Z,18.80
2023-05-20T09:34:17.838Z,19.00
2023-05-20T09:36:45.485Z,18.90
2023-05-20T09:39:16.850Z,18.90
2023-05-20T09:41:54.993Z,19.00
2023-05-20T09:44:22.802Z,19.00
2023-05-20T09:46:51.204Z,19.10
2023-05-20T09:49:19.297Z,19.40
2023-05-20T09:51:47.877Z,19.50
2023-05-20T09:54:18.463Z,19.60
2023-05-20T09:56:47.055Z,19.50
2023-05-20T09:59:18.657Z,19.60
2023-05-20T10:01:46.568Z,19.60
2023-05-20T10:04:16.618Z,19.70
2023-05-20T10:07:11.899Z,19.90
2023-05-20T10:10:10.633Z,19.80
2023-05-20T10:12:53.798Z,20.00
2023-05-20T10:15:25.851Z,20.00
2023-05-20T10:18:05.405Z,20.10
2023-05-20T10:20:32.289Z,20.20
2023-05-20T10:22:59.260Z,20.40
2023-05-20T10:25:28.513Z,20.60
2023-05-20T10:28:08.299Z,20.70
2023-05-20T10:30:36.107Z,20.80
2023-05-20T10:33:07.625Z,20.60
2023-05-20T10:35:34.778Z,20.60
2023-05-20T10:38:11.734Z,20.80
2023-05-20T10:40:39.066Z,20.90
2023-05-20T10:43:18.750Z,21.10
2023-05-20T10:45:57.608Z,21.10
2023-05-20T10:48:33.512Z,21.10
2023-05-20T10:51:05.830Z,21.10
2023-05-20T10:53:40.893Z,21.20
2023-05-20T10:56:24.115Z,21.30
2023-05-20T10:58:53.439Z,21.40
2023-05-20T11:01:27.580Z,21.60
2023-05-20T11:03:56.272Z,21.80
2023-05-20T11:06:35.968Z,22.00
2023-05-20T11:09:07.244Z,21.80
2023-05-20T11:11:34.204Z,21.90
2023-05-20T11:14:01.032Z,22.00
2023-05-20T11:16:27.971Z,22.00
2023-05-20T11:18:54.978Z,21.80
2023-05-20T11:21:21.885Z,21.90
2023-05-20T11:23:52.102Z,22.00
2023-05-20T11:26:18.971Z,21.90
2023-05-20T11:28:46.164Z,22.00
2023-05-20T11:31:13.231Z,22.10
2023-05-20T11:33:42.605Z,22.20
2023-05-20T11:36:26.474Z,22.10
2023-05-20T11:38:57.420Z,22.00
2023-05-20T11:41:28.371Z,22.20
2023-05-20T11:44:01.739Z,22.30
2023-05-20T11:46:28.905Z,22.30
2023-05-20T11:48:56.809Z,22.40
2023-05-20T11:51:28.202Z,22.20
2023-05-20T11:54:02.032Z,22.30
2023-05-20T11:56:41.360Z,22.50
2023-05-20T11:59:10.819Z,22.80
2023-05-20T12:01:43.023Z,23.00
2023-05-20T12:04:10.992Z,23.20
2023-05-20T12:06:38.181Z,23.30
2023-05-20T12:09:07.288Z,23.20
2023-05-20T12:11:40.483Z,23.20
2023-05-20T12:14:08.622Z,23.10
2023-05-20T12:16:37.128Z,23.20
2023-05-20T12:19:04.465Z,23.30
2023-05-20T12:21:32.154Z,23.30
2023-05-20T12:24:02.250Z,23.20
2023-05-20T12:26:29.715Z,23.10
2023-05-20T12:28:57.656Z,23.20
2023-05-20T12:31:25.604Z,23.40
2023-05-20T12:33:52.554Z,23.60
2023-05-20T12:36:25.094Z,23.90
2023-05-20T12:38:52.065Z,23.90
2023-05-20T12:41:18.946Z,23.80
2023-05-20T12:43:45.807Z,23.90
2023-05-20T12:46:12.618Z,24.10
2023-05-20T12:48:41.769Z,24.30
2023-05-20T12:51:09.437Z,24.30
2023-05-20T12:53:36.323Z,24.40
2023-05-20T12:56:03.837Z,24.40
2023-05-20T12:58:31.405Z,24.30
2023-05-20T13:00:58.295Z,24.10
2023-05-20T13:03:25.193Z,24.00
2023-05-20T13:05:52.104Z,23.90
2023-05-20T13:08:18.944Z,23.90
2023-05-20T13:10:46.183Z,24.00
2023-05-20T13:13:13.852Z,24.00
2023-05-20T13:15:41.364Z,24.00
2023-05-20T13:18:08.406Z,23.90
2023-05-20T13:20:35.640Z,23.60
2023-05-20T13:23:02.921Z,23.60
2023-05-20T13:25:29.812Z,23.70
2023-05-20T13:27:56.640Z,23.70
2023-05-20T13:30:23.482Z,23.70
2023-05-20T13:32:50.373Z,23.60
2023-05-20T13:35:17.478Z,23.50
2023-05-20T13:37:44.695Z,23.30
2023-05-20T13:40:12.453Z,23.40
2023-05-20T13:42:39.334Z,23.50
2023-05-20T13:45:06.983Z,23.40
2023-05-20T13:47:33.953Z,23.60
2023-05-20T13:50:03.044Z,23.60
2023-05-20T13:52:30.227Z,23.60
2023-05-20T13:54:57.059Z,23.60
2023-05-20T13:57:23.944Z,23.70
2023-05-20T13:59:50.821Z,23.70
2023-05-20T14:02:18.019Z,23.70
2023-05-20T14:04:46.885Z,23.70
2023-05-20T14:07:14.102Z,23.70
2023-05-20T14:28:00.620Z,23.40
2023-05-20T14:30:27.438Z,23.30
2023-05-20T14:32:54.923Z,23.20
2023-05-20T14:35:21.917Z,23.20
2023-05-20T14:37:48.834Z,23.30
2023-05-20T14:40:15.747Z,23.40
2023-05-20T14:42:42.576Z,23.40
2023-05-20T14:45:10.267Z,23.50
2023-05-20T14:47:39.950Z,23.50
2023-05-20T14:50:07.820Z,23.40
2023-05-20T14:52:34.691Z,23.40
2023-05-20T14:55:01.518Z,23.30
2023-05-20T14:57:28.458Z,23.10
2023-05-20T14:59:55.515Z,23.00
2023-05-20T15:02:22.502Z,23.00
2023-05-20T15:04:49.555Z,23.00
2023-05-20T15:07:16.573Z,23.00
2023-05-20T15:09:43.925Z,23.20
2023-05-20T15:12:11.485Z,23.40
2023-05-20T15:14:38.416Z,23.70
2023-05-20T15:17:05.387Z,23.90
2023-05-20T15:19:32.959Z,23.80
2023-05-20T15:22:00.241Z,23.80
2023-05-20T15:24:27.059Z,24.00
2023-05-20T15:26:55.010Z,24.20
2023-05-20T15:29:22.405Z,24.30
2023-05-20T15:31:49.375Z,24.30
2023-05-20T15:34:16.228Z,24.30
2023-05-20T15:36:43.036Z,24.50
2023-05-20T15:39:09.811Z,24.40
2023-05-20T15:41:39.854Z,24.40
2023-05-20T15:44:07.493Z,24.50
2023-05-20T15:46:34.537Z,24.40
2023-05-20T15:49:01.364Z,24.40
2023-05-20T15:51:28.221Z,24.30
2023-05-20T15:53:55.089Z,24.50
2023-05-20T15:56:22.256Z,24.60
2023-05-20T15:58:49.188Z,24.20
2023-05-20T16:01:16.172Z,24.00
2023-05-20T16:03:43.891Z,24.10
2023-05-20T16:06:11.801Z,24.10
2023-05-20T16:08:38.778Z,24.20
2023-05-20T16:11:05.697Z,24.10
2023-05-20T16:13:32.485Z,24.10
2023-05-20T16:15:59.846Z,24.10
2023-05-20T16:18:30.452Z,24.10
2023-05-20T16:20:57.798Z,24.10
2023-05-20T16:23:25.190Z,24.10
2023-05-20T16:25:52.050Z,24.00
2023-05-20T16:28:19.015Z,23.80
2023-05-20T16:30:46.084Z,23.80
2023-05-20T16:33:13.320Z,23.60
2023-05-20T16:35:40.334Z,23.40
2023-05-20T16:38:07.381Z,23.10
2023-05-20T16:40:34.566Z,23.00
2023-05-20T16:43:01.922Z,23.00
2023-05-20T16:45:28.749Z,23.00
2023-05-20T16:47:56.345Z,22.80
2023-05-20T16:50:23.420Z,22.60
2023-05-20T16:52:50.405Z,22.60
2023-05-20T16:55:17.270Z,22.50
2023-05-20T16:57:44.249Z,22.50
2023-05-20T17:00:11.735Z,22.50
2023-05-20T17:02:38.676Z,22.50
2023-05-20T17:05:06.585Z,22.40
2023-05-20T17:07:34.096Z,22.40
2023-05-20T17:10:01.569Z,22.40
2023-05-20T17:12:28.463Z,22.40
2023-05-20T17:14:55.351Z,22.30
2023-05-20T17:17:22.596Z,22.20
2023-05-20T17:19:49.513Z,22.20
2023-05-20T17:22:16.780Z,22.00
2023-05-20T17:24:43.608Z,22.00
2023-05-20T17:27:10.471Z,22.00
2023-05-20T17:29:37.346Z,21.90
2023-05-20T17:32:04.640Z,21.90
2023-05-20T17:34:31.541Z,21.70
2023-05-20T17:36:58.388Z,21.70
2023-05-20T17:39:25.191Z,21.60
2023-05-20T17:41:51.965Z,21.60
2023-05-20T17:44:18.826Z,21.60
2023-05-20T17:46:45.816Z,21.50
2023-05-20T17:49:12.724Z,21.60
2023-05-20T17:51:41.704Z,21.50
2023-05-20T17:54:08.566Z,21.40
2023-05-20T17:56:35.470Z,21.30
2023-05-20T17:59:02.345Z,21.30
2023-05-20T18:01:29.646Z,21.30
2023-05-20T18:03:58.356Z,21.00
2023-05-20T18:06:26.489Z,21.10
2023-05-20T18:08:53.385Z,21.00
2023-05-20T18:11:21.697Z,21.00
2023-05-20T18:13:48.508Z,21.00
2023-05-20T18:16:15.454Z,20.90
2023-05-20T18:18:42.370Z,20.90
2023-05-20T18:21:09.991Z,20.90
2023-05-20T18:23:36.792Z,20.90
2023-05-20T18:26:06.871Z,20.80
2023-05-20T18:28:33.807Z,20.80
2023-05-20T18:31:00.618Z,20.70
2023-05-20T18:33:27.438Z,20.60
2023-05-20T18:35:54.346Z,20.50
2023-05-20T18:38:21.330Z,20.40
2023-05-20T18:40:48.411Z,20.30
2023-05-20T18:43:15.266Z,20.30
2023-05-20T18:45:42.291Z,20.30
2023-05-20T18:48:09.595Z,20.30
2023-05-20T18:50:36.908Z,20.20
2023-05-20T18:53:03.993Z,20.20
2023-05-20T18:55:31.154Z,20.20
2023-05-20T18:57:57.951Z,20.10
2023-05-20T19:00:25.236Z,20.10
2023-05-20T19:02:52.312Z,20.10
2023-05-20T19:05:20.052Z,20.00
2023-05-20T19:07:46.956Z,20.00
2023-05-20T19:10:15.104Z,19.90
2023-05-20T19:12:43.468Z,19.90
2023-05-20T19:15:10.954Z,19.90
2023-05-20T19:17:39.330Z,19.80
2023-05-20T19:20:07.745Z,19.80
2023-05-20T19:22:34.601Z,19.80
2023-05-20T19:25:01.492Z,19.70
2023-05-20T19:27:28.566Z,19.70
2023-05-20T19:29:55.487Z,19.70
2023-05-20T19:32:22.416Z,19.70
2023-05-20T19:34:49.305Z,19.70
2023-05-20T19:37:16.168Z,19.70
2023-05-20T19:39:43.047Z,19.60
2023-05-20T19:42:09.857Z,19.60
2023-05-20T19:44:36.676Z,19.60
2023-05-20T19:47:05.528Z,19.50
2023-05-20T19:49:33.021Z,19.50
2023-05-20T19:51:59.916Z,19.50
2023-05-20T19:54:27.229Z,19.40
2023-05-20T19:56:54.148Z,19.40
2023-05-20T19:59:21.103Z,19.40
2023-05-20T20:01:48.034Z,19.40
2023-05-20T20:04:17.083Z,19.40
2023-05-20T20:06:44.479Z,19.30
2023-05-20T20:09:11.420Z,19.30
2023-05-20T20:11:38.350Z,19.20
2023-05-20T20:14:05.334Z,19.30
2023-05-20T20:16:32.193Z,19.30
2023-05-20T20:18:59.245Z,19.30
2023-05-20T20:21:26.172Z,19.20
2023-05-20T20:23:53.302Z,19.10
2023-05-20T20:26:23.554Z,19.20
2023-05-20T20:28:50.619Z,19.10
2023-05-20T20:31:17.748Z,19.10
2023-05-20T20:33:44.596Z,19.00
2023-05-20T20:36:11.414Z,19.00
2023-05-20T20:38:38.609Z,19.00
2023-05-20T20:41:05.468Z,19.00
2023-05-20T20:43:34.582Z,18.90
2023-05-20T20:46:01.568Z,18.90
2023-05-20T20:48:28.355Z,18.90
2023-05-20T20:50:55.265Z,18.80
2023-05-20T20:53:22.308Z,18.80
2023-05-20T20:55:51.195Z,18.80
2023-05-20T20:58:18.186Z,18.80
2023-05-20T21:00:45.741Z,18.80
2023-05-20T21:03:13.284Z,18.80
2023-05-20T21:05:40.297Z,18.80
2023-05-20T21:08:13.153Z,18.80
2023-05-20T21:10:40.058Z,18.80
2023-05-20T21:13:06.931Z,18.70
2023-05-20T21:15:33.919Z,18.60
2023-05-20T21:18:01.003Z,18.60
2023-05-20T21:20:27.940Z,18.60
2023-05-20T21:22:54.821Z,18.60
2023-05-20T21:25:21.644Z,18.60
2023-05-20T21:27:48.510Z,18.50
2023-05-20T21:30:16.408Z,18.50
2023-05-20T21:32:43.332Z,18.50
2023-05-20T21:35:10.356Z,18.50
2023-05-20T21:37:37.277Z,18.60
2023-05-20T21:40:04.764Z,18.60
2023-05-20T21:42:31.665Z,18.60
2023-05-20T21:44:58.507Z,18.60
2023-05-20T21:47:25.438Z,18.60
2023-05-20T21:49:52.351Z,18.60
2023-05-20T21:52:19.187Z,18.50
2023-05-20T21:54:45.988Z,18.50
2023-05-20T21:57:12.901Z,18.40
2023-05-20T21:59:39.737Z,18.40
2023-05-20T22:02:06.725Z,18.40
2023-05-20T22:04:33.781Z,18.40
2023-05-20T22:07:00.966Z,18.40
2023-05-20T22:09:27.884Z,18.40
2023-05-20T22:11:55.201Z,18.40
2023-05-20T22:14:22.230Z,18.40
2023-05-20T22:16:49.297Z,18.40
2023-05-20T22:19:17.595Z,18.30
2023-05-20T22:21:50.656Z,18.20
2023-05-20T22:24:18.398Z,18.20
2023-05-20T22:26:45.682Z,18.20
2023-05-20T22:29:12.510Z,18.20
2023-05-20T22:31:39.681Z,18.10
2023-05-20T22:34:06.678Z,18.20
2023-05-20T22:36:34.216Z,18.20
2023-05-20T22:39:02.369Z,18.10
2023-05-20T22:41:29.293Z,18.10
2023-05-20T22:43:56.870Z,18.00
2023-05-20T22:46:24.631Z,18.00
2023-05-20T22:48:55.308Z,17.90
2023-05-20T22:51:22.811Z,17.90
2023-05-20T22:53:49.934Z,17.90
2023-05-20T22:56:17.985Z,17.80
2023-05-20T22:58:45.743Z,17.80
2023-05-20T23:01:13.190Z,17.70
2023-05-20T23:03:40.154Z,17.70
2023-05-20T23:06:07.074Z,17.70
2023-05-20T23:08:34.045Z,17.60
2023-05-20T23:11:00.880Z,17.70
2023-05-20T23:13:27.956Z,17.60
2023-05-20T23:15:54.900Z,17.50
2023-05-20T23:18:21.756Z,17.50
2023-05-20T23:20:48.786Z,17.50
2023-05-20T23:23:16.063Z,17.50
2023-05-20T23:25:45.047Z,17.50
2023-05-20T23:28:12.574Z,17.50
2023-05-20T23:30:39.503Z,17.40
2023-05-20T23:33:06.569Z,17.40
2023-05-20T23:35:33.901Z,17.30
2023-05-20T23:38:01.232Z,17.30
2023-05-20T23:40:28.043Z,17.30
2023-05-20T23:42:54.866Z,17.30
2023-05-20T23:45:21.695Z,17.30
2023-05-20T23:47:49.247Z,17.30
2023-05-20T23:50:16.288Z,17.30
2023-05-20T23:52:43.216Z,17.30
2023-05-20T23:55:10.299Z,17.30
2023-05-20T23:57:37.351Z,17.30
